Time;durP1;ratioP1;P1;durP2;ratioP2;P2;SDS_P1;SDS_P2;PMS_P1;PMS_P2;Temp;Humidity;BMP_temperature;BMP_pressure;BME280_temperature;BME280_humidity;BME280_pressure;Samples;Min_cycle;Max_cycle;Signal;HPM_P1;HPM_P2
2022/11/21 00:03:46;;;;;;;89.30;38.78;;;;;;;6.53;69.48;98392.81;4135329;85;28525;-87
2022/11/21 00:09:47;;;;;;;86.63;39.13;;;;;;;6.30;70.04;98380.11;4096528;86;28571;-87
2022/11/21 00:15:49;;;;;;;83.92;38.15;;;;;;;5.79;72.05;98369.41;4160248;84;28494;-85
2022/11/21 00:21:50;;;;;;;98.82;41.88;;;;;;;5.66;72.32;98376.97;4183014;83;28539;-82
2022/11/21 00:27:52;;;;;;;91.78;40.03;;;;;;;5.47;72.81;98379.23;4175848;85;28561;-82
2022/11/21 00:33:53;;;;;;;88.95;39.35;;;;;;;5.59;72.40;98365.52;4155437;84;28559;-83
2022/11/21 00:39:54;;;;;;;88.52;39.38;;;;;;;5.70;72.45;98354.69;4154991;85;28516;-83
2022/11/21 00:45:57;;;;;;;88.58;39.92;;;;;;;5.65;71.44;98358.50;4057121;85;28540;-84
2022/11/21 00:51:58;;;;;;;83.12;39.45;;;;;;;5.69;71.33;98352.53;4198437;84;28493;-84
2022/11/21 00:58:00;;;;;;;88.17;41.25;;;;;;;5.93;69.64;98350.08;4099869;86;28522;-84
2022/11/21 01:04:01;;;;;;;91.85;39.70;;;;;;;5.64;70.53;98347.54;4103989;85;28535;-83
2022/11/21 01:10:03;;;;;;;88.22;39.73;;;;;;;5.89;70.10;98340.89;4105765;86;28543;-84
2022/11/21 01:16:17;;;;;;;89.47;40.95;;;;;;;5.90;70.54;98345.73;4112236;85;28567;-81
2022/11/21 01:22:19;;;;;;;85.22;40.33;;;;;;;5.84;69.76;98346.87;4111477;85;28586;-82
2022/11/21 01:28:20;;;;;;;85.72;39.53;;;;;;;5.55;70.85;98333.66;4089253;85;28567;-83
2022/11/21 01:34:22;;;;;;;98.33;43.35;;;;;;;5.59;71.05;98332.19;4115583;85;28556;-83
2022/11/21 01:40:23;;;;;;;96.20;43.87;;;;;;;5.56;70.57;98321.42;4110847;85;28485;-83
2022/11/21 01:46:25;;;;;;;91.90;43.65;;;;;;;5.26;71.61;98319.39;4104155;85;28574;-84
2022/11/21 01:52:30;;;;;;;93.60;40.80;;;;;;;5.16;72.47;98325.70;4095250;85;28555;-84
2022/11/21 01:58:33;;;;;;;97.50;45.43;;;;;;;5.16;72.06;98340.36;4084621;85;45726;-85
2022/11/21 02:04:36;;;;;;;88.12;41.85;;;;;;;5.56;71.32;98342.76;4120765;84;28552;-87
2022/11/21 02:10:41;;;;;;;88.30;39.78;;;;;;;6.01;68.85;98346.34;4142150;85;28562;-87
2022/11/21 02:16:43;;;;;;;86.53;41.13;;;;;;;5.79;68.71;98348.56;4103562;86;28520;-82
2022/11/21 02:23:11;;;;;;;88.90;40.92;;;;;;;5.48;68.10;98331.55;4138690;85;28498;-83
2022/11/21 02:29:12;;;;;;;92.80;42.00;;;;;;;5.37;69.59;98333.06;4155255;83;28591;-88
2022/11/21 02:35:17;;;;;;;91.50;40.85;;;;;;;5.16;69.03;98335.02;4187969;85;28565;-84
2022/11/21 02:41:25;;;;;;;86.27;40.80;;;;;;;4.98;69.50;98338.37;4128280;85;28547;-84
2022/11/21 02:47:26;;;;;;;81.42;39.60;;;;;;;4.46;71.69;98333.33;4097810;86;28497;-84
2022/11/21 02:53:27;;;;;;;84.30;40.20;;;;;;;4.45;69.96;98326.88;4133950;84;28543;-83
2022/11/21 02:59:29;;;;;;;84.95;39.38;;;;;;;4.18;70.16;98320.30;4123274;84;28518;-85
2022/11/21 03:05:30;;;;;;;78.85;36.95;;;;;;;4.05;70.36;98316.60;4030950;86;28491;-83
2022/11/21 03:11:32;;;;;;;82.97;38.55;;;;;;;4.06;69.79;98305.47;4031296;87;28535;-86
2022/11/21 03:17:33;;;;;;;77.20;35.55;;;;;;;3.76;69.07;98305.39;4035861;86;28495;-80
2022/11/21 03:23:35;;;;;;;77.97;35.75;;;;;;;3.71;68.66;98315.81;4058122;86;28595;-77
2022/11/21 03:29:36;;;;;;;82.12;38.23;;;;;;;3.29;71.79;98307.18;3979541;87;28559;-77
2022/11/21 03:35:37;;;;;;;79.97;37.40;;;;;;;3.19;72.60;98294.30;3968475;88;28554;-77
2022/11/21 03:41:38;;;;;;;76.37;37.25;;;;;;;3.33;72.35;98293.29;4030202;86;43503;-79
2022/11/21 03:47:40;;;;;;;80.53;36.93;;;;;;;3.14;74.93;98291.41;4025652;86;28564;-78
2022/11/21 03:53:41;;;;;;;80.00;36.73;;;;;;;3.30;74.00;98284.41;4021750;86;28512;-79
2022/11/21 03:59:43;;;;;;;73.30;35.43;;;;;;;3.77;69.89;98284.92;4062146;86;43670;-80
2022/11/21 04:05:44;;;;;;;84.85;36.20;;;;;;;3.35;68.61;98293.90;4131383;84;44074;-77
2022/11/21 04:11:45;;;;;;;79.07;35.13;;;;;;;3.52;68.76;98299.33;4167146;84;28549;-80
2022/11/21 04:17:46;;;;;;;72.42;33.67;;;;;;;3.36;69.89;98302.70;4171171;84;28587;-80
2022/11/21 04:23:48;;;;;;;71.72;33.20;;;;;;;3.06;68.54;98299.87;4134790;84;44190;-80
2022/11/21 04:29:49;;;;;;;73.35;34.10;;;;;;;3.14;68.46;98290.92;4166295;84;44126;-80
2022/11/21 04:35:50;;;;;;;74.35;34.05;;;;;;;2.97;68.61;98303.75;4128663;84;28609;-80
2022/11/21 04:41:52;;;;;;;75.05;34.43;;;;;;;3.00;71.43;98291.39;4141683;84;44208;-80
2022/11/21 04:47:53;;;;;;;74.22;33.48;;;;;;;3.12;68.72;98278.84;4097033;84;44098;-81
2022/11/21 04:53:54;;;;;;;81.78;37.03;;;;;;;3.08;68.20;98280.28;4142628;85;43380;-81
2022/11/21 04:59:56;;;;;;;77.25;35.08;;;;;;;2.93;73.49;98278.59;4157559;84;28534;-80
2022/11/21 05:05:58;;;;;;;72.80;34.43;;;;;;;2.59;78.51;98271.03;4169661;83;44117;-79
2022/11/21 05:18:18;;;;;;;76.95;32.60;;;;;;;2.89;69.46;98257.45;4083137;85;43885;-79
2022/11/21 05:24:20;;;;;;;70.10;33.25;;;;;;;2.80;68.97;98236.89;4110968;85;44799;-78
2022/11/21 05:30:21;;;;;;;75.35;34.10;;;;;;;2.60;68.30;98254.92;4114664;85;44144;-80
2022/11/21 05:36:22;;;;;;;67.62;31.40;;;;;;;2.48;70.78;98246.70;4178659;83;44142;-81
2022/11/21 05:48:45;;;;;;;64.27;30.37;;;;;;;2.18;74.82;98228.91;4185348;83;44159;-81
2022/11/21 05:54:46;;;;;;;67.97;30.32;;;;;;;2.54;72.93;98223.03;4170536;83;44084;-80
2022/11/21 06:00:47;;;;;;;68.05;31.30;;;;;;;2.60;68.45;98212.95;4108875;85;44146;-76
2022/11/21 06:06:48;;;;;;;67.82;31.55;;;;;;;2.82;69.28;98206.17;4180315;84;28506;-78
2022/11/21 06:12:50;;;;;;;73.30;32.78;;;;;;;2.45;71.48;98198.02;4166288;83;44159;-77
2022/11/21 06:18:52;;;;;;;69.85;32.85;;;;;;;2.82;69.03;98206.17;4170301;84;44159;-77
2022/11/21 06:24:54;;;;;;;67.37;31.07;;;;;;;2.61;73.02;98206.13;4161019;83;44139;-82
2022/11/21 06:30:56;;;;;;;62.73;28.85;;;;;;;2.69;68.71;98202.97;4186234;83;43450;-85
2022/11/21 06:36:58;;;;;;;69.45;31.57;;;;;;;2.68;66.62;98212.78;4181037;83;44171;-79
2022/11/21 06:43:00;;;;;;;83.70;35.75;;;;;;;2.77;67.78;98204.95;4183191;83;43418;-82
2022/11/21 06:49:01;;;;;;;73.45;33.38;;;;;;;2.96;71.17;98203.03;4115941;85;44134;-76
2022/11/21 06:55:04;;;;;;;72.15;32.80;;;;;;;3.00;68.96;98203.75;4128788;85;44538;-75
2022/11/21 07:01:08;;;;;;;85.42;36.40;;;;;;;3.03;68.94;98209.18;4118473;84;44330;-74
2022/11/21 07:07:09;;;;;;;85.75;38.25;;;;;;;3.01;74.38;98189.45;4115136;85;44358;-74
2022/11/21 07:13:23;;;;;;;78.02;35.78;;;;;;;3.22;76.13;98184.97;4144801;84;28543;-74
2022/11/21 07:19:24;;;;;;;92.12;38.35;;;;;;;3.46;74.22;98178.72;4131796;84;44499;-76
2022/11/21 07:25:26;;;;;;;77.37;35.90;;;;;;;3.54;75.95;98182.99;4151231;84;28534;-75
2022/11/21 07:31:27;;;;;;;90.75;39.50;;;;;;;3.39;77.50;98183.23;4128552;84;28510;-75
2022/11/21 07:37:29;;;;;;;85.77;39.10;;;;;;;3.84;77.37;98175.39;4174920;83;44515;-75
2022/11/21 07:43:30;;;;;;;97.88;39.67;;;;;;;3.93;76.64;98164.00;4108284;85;28574;-75
2022/11/21 07:49:32;;;;;;;85.25;40.03;;;;;;;4.26;79.25;98163.58;4112272;85;28541;-75
2022/11/21 07:55:34;;;;;;;93.20;41.45;;;;;;;4.85;76.78;98170.13;4178630;83;28571;-74
2022/11/21 08:01:35;;;;;;;89.58;39.40;;;;;;;4.89;78.85;98162.00;4119778;85;28544;-77
2022/11/21 08:07:37;;;;;;;95.92;42.43;;;;;;;4.77;77.28;98153.88;4110513;83;28577;-75
2022/11/21 08:13:38;;;;;;;90.47;42.88;;;;;;;5.53;75.79;98136.55;4112337;85;28563;-75
2022/11/21 08:19:39;;;;;;;94.47;42.35;;;;;;;6.08;73.41;98136.28;4114110;85;28540;-75
2022/11/21 08:25:43;;;;;;;86.47;40.52;;;;;;;6.45;72.66;98127.94;4117513;85;28604;-75
2022/11/21 08:31:45;;;;;;;80.30;38.75;;;;;;;6.83;69.87;98132.92;4127333;85;28611;-76
2022/11/21 08:37:46;;;;;;;80.55;39.58;;;;;;;7.21;69.52;98126.07;4129034;84;28527;-75
2022/11/21 08:43:47;;;;;;;72.00;35.68;;;;;;;7.34;69.39;98127.69;4099294;85;28581;-75
2022/11/21 08:49:49;;;;;;;77.80;37.65;;;;;;;7.61;69.34;98117.34;4111977;85;28598;-74
2022/11/21 08:55:50;;;;;;;80.60;37.30;;;;;;;7.28;70.31;98122.74;4143932;85;28560;-74
2022/11/21 09:01:52;;;;;;;79.58;37.42;;;;;;;7.43;70.26;98114.80;4113851;85;28593;-75
2022/11/21 09:07:57;;;;;;;90.83;40.52;;;;;;;7.35;70.14;98115.42;4140998;85;28485;-75
2022/11/21 09:20:18;;;;;;;89.28;39.80;;;;;;;7.30;71.34;98119.34;4124351;85;28544;-74
2022/11/21 09:26:20;;;;;;;76.55;38.20;;;;;;;7.42;71.46;98113.17;4118557;85;28542;-75
2022/11/21 09:32:22;;;;;;;78.37;37.70;;;;;;;8.02;69.46;98112.02;4090762;85;28555;-74
2022/11/21 09:38:25;;;;;;;85.53;40.00;;;;;;;8.36;68.42;98114.80;4117542;85;28517;-75
2022/11/21 09:44:55;;;;;;;81.12;38.28;;;;;;;8.67;67.92;98120.47;4126378;85;28534;-75
2022/11/21 09:51:07;;;;;;;81.72;39.05;;;;;;;8.26;67.96;98108.46;4140338;85;28531;-74
2022/11/21 09:57:10;;;;;;;83.10;39.10;;;;;;;8.12;68.54;98108.72;4130908;85;28568;-75
2022/11/21 10:03:12;;;;;;;77.87;36.68;;;;;;;8.27;68.32;98101.51;4133603;85;28497;-75
2022/11/21 10:09:43;;;;;;;74.82;37.03;;;;;;;8.31;68.26;98095.98;4167107;85;28526;-75
2022/11/21 10:15:59;;;;;;;72.62;36.10;;;;;;;8.40;68.64;98092.92;4089804;85;28528;-74
2022/11/21 10:22:09;;;;;;;68.30;34.40;;;;;;;8.69;68.07;98091.55;4086503;85;28583;-74
2022/11/21 10:28:21;;;;;;;76.55;35.80;;;;;;;8.99;67.35;98086.41;4054950;86;28602;-74
2022/11/21 10:34:27;;;;;;;70.03;34.73;;;;;;;8.84;67.19;98094.51;3990619;87;28606;-73
2022/11/21 10:40:48;;;;;;;72.58;34.65;;;;;;;8.98;66.95;98088.81;3988535;87;28566;-74
2022/11/21 10:46:58;;;;;;;68.50;34.50;;;;;;;9.93;64.79;98081.80;3987785;87;28523;-73
2022/11/21 10:59:30;;;;;;;67.85;34.73;;;;;;;10.21;63.36;98072.72;3995553;87;28567;-74
2022/11/21 11:05:37;;;;;;;69.82;33.67;;;;;;;9.25;65.67;98066.16;4069299;85;28560;-76
2022/11/21 11:11:39;;;;;;;67.92;34.67;;;;;;;9.61;65.66;98063.16;4177808;84;28549;-75
2022/11/21 11:17:40;;;;;;;72.32;35.80;;;;;;;9.76;65.54;98063.88;4132940;84;28524;-75
2022/11/21 11:23:42;;;;;;;67.65;35.05;;;;;;;9.39;66.24;98046.50;4202447;84;28538;-75
2022/11/21 11:29:50;;;;;;;67.75;34.00;;;;;;;9.39;66.20;98043.82;4203540;84;28503;-74
2022/11/21 11:35:53;;;;;;;63.92;33.18;;;;;;;9.73;65.62;98050.97;4183160;84;28597;-74
2022/11/21 11:48:42;;;;;;;66.37;34.88;;;;;;;9.36;65.92;98029.57;4149901;84;28533;-74
2022/11/21 11:54:48;;;;;;;65.80;34.03;;;;;;;9.97;66.26;98030.55;4076386;85;28504;-74
2022/11/21 12:01:04;;;;;;;68.30;33.55;;;;;;;9.94;65.63;98029.73;4154320;84;28561;-74
2022/11/21 12:07:11;;;;;;;60.95;33.15;;;;;;;10.01;65.22;98018.27;4165587;84;28530;-74
2022/11/21 12:13:15;;;;;;;64.50;32.40;;;;;;;10.16;65.25;98013.59;4125397;85;28645;-74
2022/11/21 12:19:17;;;;;;;62.58;33.30;;;;;;;10.19;65.37;98015.75;4088218;85;28716;-74
2022/11/21 12:25:29;;;;;;;59.73;31.50;;;;;;;10.45;64.96;98019.52;4121300;85;28575;-74
2022/11/21 12:32:12;;;;;;;61.37;33.35;;;;;;;10.66;64.01;98006.25;4105613;85;28518;-74
2022/11/21 12:38:25;;;;;;;64.75;33.35;;;;;;;10.79;63.80;98015.77;4122932;84;28579;-75
2022/11/21 12:44:41;;;;;;;59.30;32.03;;;;;;;10.79;64.21;98012.25;4109186;85;28584;-75
2022/11/21 12:58:13;;;;;;;63.85;31.55;;;;;;;11.04;63.60;98004.89;4057349;86;28523;-74
2022/11/21 13:04:26;;;;;;;64.20;33.13;;;;;;;10.60;64.69;98007.27;4141954;84;28620;-74
2022/11/21 13:10:27;;;;;;;64.37;33.30;;;;;;;10.95;64.62;98000.55;4172392;84;28516;-74
2022/11/21 13:16:36;;;;;;;66.53;34.65;;;;;;;10.75;64.97;97999.85;4165198;84;28546;-74
2022/11/21 13:22:46;;;;;;;65.95;32.10;;;;;;;10.56;65.69;98001.59;4160597;84;28524;-74
2022/11/21 13:28:47;;;;;;;71.95;33.00;;;;;;;10.49;65.85;98000.19;4176921;84;28474;-75
2022/11/21 13:34:49;;;;;;;65.92;32.60;;;;;;;10.28;66.56;97991.92;4141520;84;28579;-74
2022/11/21 13:47:58;;;;;;;66.53;32.98;;;;;;;10.26;66.52;97998.08;4165818;84;28534;-74
2022/11/21 13:54:29;;;;;;;63.35;32.25;;;;;;;10.30;66.94;98004.56;4129548;83;28594;-76
2022/11/21 14:00:51;;;;;;;62.30;31.87;;;;;;;10.29;67.17;97997.05;4192407;83;28553;-74
2022/11/21 14:06:52;;;;;;;62.08;32.00;;;;;;;10.38;66.97;97987.19;4131137;83;28553;-74
2022/11/21 14:12:55;;;;;;;62.73;31.40;;;;;;;10.37;67.19;97979.64;4147955;83;28523;-74
2022/11/21 14:18:57;;;;;;;63.15;30.95;;;;;;;10.14;67.80;97980.25;4125026;84;28497;-85
2022/11/21 14:24:59;;;;;;;63.75;31.30;;;;;;;10.14;67.87;97977.56;4175456;83;28485;-83
2022/11/21 14:31:05;;;;;;;60.05;30.12;;;;;;;10.01;67.81;97984.15;4114436;85;28547;-84
2022/11/21 14:37:07;;;;;;;59.60;28.98;;;;;;;9.82;68.39;97983.70;4151955;83;28542;-84
2022/11/21 14:43:30;;;;;;;57.43;30.17;;;;;;;9.79;68.11;97978.84;4192963;83;28550;-86
2022/11/21 14:49:31;;;;;;;59.85;28.38;;;;;;;9.83;67.39;97991.20;4129394;84;28527;-83
2022/11/21 14:55:33;;;;;;;59.93;30.00;;;;;;;9.53;67.29;97992.47;4097102;85;28543;-83
2022/11/21 15:01:34;;;;;;;59.45;30.12;;;;;;;9.23;68.19;97990.50;4085616;85;28914;-80
2022/11/21 15:07:43;;;;;;;64.95;30.08;;;;;;;9.14;67.95;97989.30;4110071;85;28527;-79
2022/11/21 15:13:53;;;;;;;57.93;29.27;;;;;;;9.28;68.39;97999.97;4099986;85;28559;-83
2022/11/21 15:20:12;;;;;;;64.95;31.87;;;;;;;9.25;68.38;97991.61;4087585;85;28590;-81
2022/11/21 15:26:29;;;;;;;61.63;30.32;;;;;;;9.34;69.96;97996.83;4159422;84;28653;-82
2022/11/21 15:32:51;;;;;;;59.45;30.17;;;;;;;9.38;70.03;98000.62;4113800;85;28672;-86
2022/11/21 15:39:13;;;;;;;59.00;29.95;;;;;;;9.43;68.93;98003.39;4091612;85;28545;-86
2022/11/21 15:45:21;;;;;;;54.98;29.48;;;;;;;9.57;68.68;98001.66;4069841;85;28602;-74
2022/11/21 15:51:34;;;;;;;56.25;29.65;;;;;;;9.55;69.06;98001.90;4119916;84;28486;-77
2022/11/21 15:57:36;;;;;;;57.08;29.10;;;;;;;9.59;69.09;97990.97;4116559;84;28520;-75
2022/11/21 16:03:37;;;;;;;60.05;30.27;;;;;;;9.60;68.93;97981.03;4119397;84;28525;-76
2022/11/21 16:09:39;;;;;;;56.45;28.45;;;;;;;9.69;69.48;97985.44;4140307;83;28506;-76
2022/11/21 16:15:41;;;;;;;56.68;28.85;;;;;;;9.61;69.41;97981.30;4086963;85;28530;-75
2022/11/21 16:21:42;;;;;;;61.48;30.43;;;;;;;9.63;69.52;97985.88;4092601;85;28582;-76
2022/11/21 16:27:43;;;;;;;53.90;28.47;;;;;;;9.70;69.41;97981.14;4136630;84;28490;-83
2022/11/21 16:33:45;;;;;;;59.42;29.18;;;;;;;9.74;69.28;97986.30;4161409;84;28527;-75
2022/11/21 16:39:50;;;;;;;58.80;29.10;;;;;;;9.76;69.12;97994.91;4162758;84;28647;-76
2022/11/21 16:45:51;;;;;;;55.90;30.62;;;;;;;9.11;74.14;97995.17;4140380;84;28533;-75
2022/11/21 16:51:57;;;;;;;55.83;29.12;;;;;;;9.46;74.26;98006.08;4159670;84;28535;-75
2022/11/21 16:57:58;;;;;;;57.50;29.55;;;;;;;9.67;72.67;98004.47;4163928;84;28582;-74
2022/11/21 17:04:00;;;;;;;58.33;29.72;;;;;;;9.84;71.33;98002.22;4158362;84;28530;-75
2022/11/21 17:10:01;;;;;;;58.35;30.97;;;;;;;9.81;71.54;98004.90;4185102;84;28588;-75
2022/11/21 17:16:07;;;;;;;55.10;29.77;;;;;;;9.96;71.42;98010.97;4100627;84;28564;-76
2022/11/21 17:22:10;;;;;;;56.98;27.40;;;;;;;9.85;71.71;98007.89;4102461;84;28577;-75
2022/11/21 17:28:11;;;;;;;55.00;28.05;;;;;;;9.98;70.78;98016.06;4073326;84;28609;-75
2022/11/21 17:34:15;;;;;;;53.42;26.80;;;;;;;9.95;70.65;98020.61;4077752;85;28608;-76
2022/11/21 17:40:19;;;;;;;56.50;28.12;;;;;;;10.10;70.41;98016.75;4149463;84;28532;-75
2022/11/21 17:46:24;;;;;;;50.60;26.10;;;;;;;10.13;69.87;98019.44;4153088;84;28553;-75
2022/11/21 17:52:25;;;;;;;54.10;27.67;;;;;;;9.83;70.75;98025.58;4075987;85;28495;-74
2022/11/21 17:58:28;;;;;;;52.75;27.58;;;;;;;9.78;71.77;98033.56;4165524;84;28539;-75
2022/11/21 18:04:29;;;;;;;56.95;27.35;;;;;;;9.55;73.35;98026.59;4145907;84;28559;-78
2022/11/21 18:10:30;;;;;;;51.13;26.48;;;;;;;9.49;75.16;98021.70;4060707;85;28543;-77
2022/11/21 18:16:32;;;;;;;54.70;27.10;;;;;;;9.73;73.72;98022.23;4080439;85;28564;-77
2022/11/21 18:22:36;;;;;;;49.75;26.33;;;;;;;9.83;72.71;98022.08;4038971;86;28553;-86
2022/11/21 18:28:39;;;;;;;52.05;26.35;;;;;;;9.86;72.36;98021.05;4080975;85;28563;-80
2022/11/21 18:34:40;;;;;;;56.13;26.68;;;;;;;9.85;72.35;98021.31;4074582;85;28577;-78
2022/11/21 18:40:41;;;;;;;51.42;26.68;;;;;;;9.76;72.90;98021.75;4052792;85;28538;-78
2022/11/21 18:46:43;;;;;;;51.40;26.10;;;;;;;9.79;72.67;98018.28;4056026;85;28526;-82
2022/11/21 18:52:44;;;;;;;52.58;25.52;;;;;;;9.68;72.85;98021.36;4024010;85;28687;-85
2022/11/21 18:58:46;;;;;;;55.65;27.10;;;;;;;9.63;72.87;98025.63;4074141;85;28549;-83
2022/11/21 19:04:47;;;;;;;52.67;27.93;;;;;;;9.47;73.81;98021.94;4038499;86;28592;-82
2022/11/21 19:10:49;;;;;;;53.30;26.30;;;;;;;9.51;73.83;98020.91;4045839;86;28650;-90
2022/11/21 19:16:52;;;;;;;47.65;25.90;;;;;;;9.57;73.78;98031.18;4041970;86;28584;-88
2022/11/21 19:22:58;;;;;;;52.65;27.32;;;;;;;9.50;72.75;98039.41;4048453;85;28515;-84
2022/11/21 19:29:00;;;;;;;50.58;26.57;;;;;;;9.29;76.18;98049.05;4032014;86;29140;-85
2022/11/21 19:35:06;;;;;;;49.10;26.02;;;;;;;9.65;74.43;98052.22;4064689;84;28584;-81
2022/11/21 19:41:20;;;;;;;54.15;26.93;;;;;;;9.60;73.30;98055.65;4052009;86;28526;-84
2022/11/21 19:47:23;;;;;;;52.90;25.23;;;;;;;9.65;73.88;98055.42;4049752;86;28656;-86
2022/11/21 19:53:26;;;;;;;49.53;25.92;;;;;;;9.69;73.46;98057.36;4049985;86;28534;-84
2022/11/21 19:59:35;;;;;;;45.08;24.60;;;;;;;9.56;74.24;98058.53;4048939;85;28548;-83
2022/11/21 20:05:43;;;;;;;46.33;24.57;;;;;;;9.66;73.69;98059.72;4054699;85;28583;-83
2022/11/21 20:11:48;;;;;;;48.25;24.95;;;;;;;9.63;74.49;98057.00;4119754;85;28513;-83
2022/11/21 20:17:52;;;;;;;45.03;24.43;;;;;;;9.60;74.91;98068.24;4037211;86;43804;-83
2022/11/21 20:23:54;;;;;;;45.23;24.00;;;;;;;9.62;74.43;98064.77;3957412;88;28545;-81
2022/11/21 20:29:55;;;;;;;47.93;24.92;;;;;;;9.78;74.36;98082.43;3951086;88;28563;-82
2022/11/21 20:36:06;;;;;;;52.95;25.82;;;;;;;9.67;74.57;98076.93;4016847;86;28492;-85
2022/11/21 20:42:09;;;;;;;49.45;25.70;;;;;;;9.79;75.20;98080.02;3955626;87;28480;-84
2022/11/21 20:48:11;;;;;;;51.53;25.97;;;;;;;9.74;76.79;98080.25;3985498;87;28471;-82
2022/11/21 20:54:13;;;;;;;43.48;22.60;;;;;;;9.91;78.06;98083.39;3988992;87;28466;-81
2022/11/21 21:00:16;;;;;;;53.58;25.20;;;;;;;9.82;81.08;98083.55;3989371;87;28591;-83
2022/11/21 21:06:18;;;;;;;57.75;26.05;;;;;;;9.89;79.36;98089.03;4009207;85;28622;-82
2022/11/21 21:12:19;;;;;;;47.50;24.32;;;;;;;9.86;80.30;98083.34;4103381;85;28519;-81
2022/11/21 21:18:21;;;;;;;44.20;23.22;;;;;;;9.84;80.49;98084.92;4094285;85;28450;-78
2022/11/21 21:24:24;;;;;;;40.90;23.77;;;;;;;9.96;80.40;98079.95;4096579;85;28524;-84
2022/11/21 21:30:29;;;;;;;42.70;23.30;;;;;;;9.97;79.91;98085.09;4109471;85;28577;-87
2022/11/21 21:36:32;;;;;;;42.55;23.57;;;;;;;10.01;79.98;98088.09;4092209;85;28485;-83
2022/11/21 21:42:34;;;;;;;41.42;22.60;;;;;;;9.91;81.03;98088.76;4102368;85;28518;-79
2022/11/21 21:48:36;;;;;;;41.25;21.85;;;;;;;10.19;80.41;98090.97;4101352;85;28532;-80
2022/11/21 21:54:38;;;;;;;40.08;21.23;;;;;;;10.05;80.07;98083.83;4085970;85;28552;-82
2022/11/21 22:00:42;;;;;;;35.98;20.55;;;;;;;9.97;80.89;98088.28;4119464;84;28548;-81
2022/11/21 22:06:45;;;;;;;40.48;21.33;;;;;;;10.04;80.81;98088.91;4118182;85;28532;-80
2022/11/21 22:12:47;;;;;;;38.08;20.85;;;;;;;9.84;81.70;98088.13;4088314;85;28532;-81
2022/11/21 22:18:48;;;;;;;35.55;19.42;;;;;;;9.91;81.20;98086.08;4124480;85;28582;-83
2022/11/21 22:24:49;;;;;;;36.38;19.98;;;;;;;9.82;82.21;98085.71;4113314;85;28602;-83
2022/11/21 22:30:56;;;;;;;34.45;19.10;;;;;;;9.42;84.54;98085.45;4087292;85;28660;-82
2022/11/21 22:36:57;;;;;;;32.75;17.75;;;;;;;9.25;84.94;98091.64;4114862;85;28482;-82
2022/11/21 22:42:59;;;;;;;31.95;17.40;;;;;;;8.89;84.98;98095.91;4116447;85;28549;-82
2022/11/21 22:49:00;;;;;;;32.83;18.15;;;;;;;8.77;86.80;98095.19;4110742;85;28567;-82
2022/11/21 22:55:01;;;;;;;32.53;18.05;;;;;;;8.53;86.25;98091.82;4120692;85;28521;-82
2022/11/21 23:01:11;;;;;;;32.13;16.85;;;;;;;8.21;87.37;98083.73;4020462;86;28540;-83
2022/11/21 23:07:12;;;;;;;31.23;16.80;;;;;;;8.16;84.69;98083.62;4063676;83;28549;-84
2022/11/21 23:13:14;;;;;;;31.85;17.07;;;;;;;7.98;84.15;98076.59;4183342;83;28528;-81
2022/11/21 23:19:15;;;;;;;31.02;16.65;;;;;;;7.84;84.49;98081.41;4106333;85;28520;-82
2022/11/21 23:25:16;;;;;;;29.05;16.52;;;;;;;7.92;87.27;98068.99;4116458;85;28551;-82
2022/11/21 23:31:18;;;;;;;29.55;15.95;;;;;;;7.71;83.50;98068.58;4124546;84;28504;-81
2022/11/21 23:37:19;;;;;;;29.65;16.07;;;;;;;7.31;82.85;98058.13;4151809;84;28491;-81
2022/11/21 23:43:21;;;;;;;27.75;15.72;;;;;;;7.15;86.70;98050.29;4113261;84;28515;-79
2022/11/21 23:49:22;;;;;;;27.25;14.98;;;;;;;7.11;85.07;98047.27;4115123;84;28553;-79
2022/11/21 23:55:23;;;;;;;28.67;15.63;;;;;;;6.88;84.34;98045.39;4128689;84;28496;-79
